This is the latest recevied weather packets stored in our database for station/object E22ZMG-1. If no packets are shown the sender has not sent any weather packets the latest 10 day(s).
| Time | Temp. | Humidity | Pressure | Rain* | Wind** | Luminosity | Snow |
|---|---|---|---|---|---|---|---|
| 1777413187 | 30° C | 53% | 974 hPa | - | - | 0 W/m² | - |
| 1777412561 | 30.56° C | 52% | 974 hPa | - | - | 0 W/m² | - |
| 1777411936 | 30.56° C | 52% | 973 hPa | - | - | 0 W/m² | - |
| 1777411310 | 31.11° C | 50% | 973 hPa | - | - | 0 W/m² | - |
| 1777410685 | 30.56° C | 51% | 973 hPa | - | - | 0 W/m² | - |
| 1777410059 | 30.56° C | 52% | 973 hPa | - | - | 0 W/m² | - |
| 1777409434 | 30.56° C | 52% | 974 hPa | - | - | 0 W/m² | - |
| 1777407229 | 31.11° C | 50% | 974 hPa | - | - | 0 W/m² | - |
| 1777406605 | 30.56° C | 51% | 974 hPa | - | - | 0 W/m² | - |
| 1777405979 | 30.56° C | 50% | 974 hPa | - | - | 0 W/m² | - |
| 1777405354 | 30° C | 53% | 974 hPa | - | - | 0 W/m² | - |
| 1777404730 | 30° C | 51% | 974 hPa | - | - | 0 W/m² | - |
| 1777404103 | 30.56° C | 51% | 974 hPa | - | - | 0 W/m² | - |
| 1777403478 | 31.11° C | 50% | 974 hPa | - | - | 0 W/m² | - |
| 1777402853 | 30° C | 51% | 974 hPa | - | - | 0 W/m² | - |
| 1777402226 | 30° C | 53% | 974 hPa | - | - | 0 W/m² | - |
| 1777401602 | 29.44° C | 54% | 974 hPa | - | - | 0 W/m² | - |
| 1777400975 | 30° C | 53% | 974 hPa | - | - | 0 W/m² | - |
| 1777400350 | 28.89° C | 55% | 974 hPa | - | - | 0 W/m² | - |
| 1777399724 | 28.89° C | 54% | 974 hPa | - | - | 0 W/m² | - |
| 1777399098 | 30° C | 52% | 974 hPa | - | - | 0 W/m² | - |
| 1777398474 | 30° C | 51% | 974 hPa | - | - | 0 W/m² | - |
| 1777397849 | 30° C | 50% | 975 hPa | - | - | 0 W/m² | - |
| 1777397223 | 29.44° C | 52% | 975 hPa | - | - | 0 W/m² | - |
| 1777396598 | 30° C | 50% | 975 hPa | - | - | 0 W/m² | - |
* Rain since midnight (hover to see other rain measurements)
** Current wind speed in m/s (hover to see current wind gust speed)